Terminal Aerodrome Forecast
Issued by NWS

Home | Current Version | Previous Version | Text Only | Print | Product List | Glossary On
Versions: 1 2 3 4 5 6 7 8 9 10 11 12 13 14 15 16 17
000
FTUS44 KLZK 221700 AAA
TAFADF
TAF AMD
KADF 221702Z 2217/2312 18008KT P6SM VCSH SCT008 OVC025
      TEMPO 2217/2220 6SM BR BKN008
     FM230300 28007KT P6SM SCT015 BKN025
     FM230600 VRB05KT P6SM SCT025 BKN250=

USA.gov is the U.S. government's official web portal to all federal, state and local government web resources and services.